sensor_id;sensor_type;location;lat;lon;timestamp;temperature;humidity
14604;DHT22;7388;51.078;13.740;2024-02-26T00:00:35;8.00;39.50
14604;DHT22;7388;51.078;13.740;2024-02-26T00:03:01;7.90;39.50
14604;DHT22;7388;51.078;13.740;2024-02-26T00:05:27;7.90;39.50
14604;DHT22;7388;51.078;13.740;2024-02-26T00:07:53;7.90;39.50
14604;DHT22;7388;51.078;13.740;2024-02-26T00:10:19;7.80;39.40
14604;DHT22;7388;51.078;13.740;2024-02-26T00:12:44;7.80;39.60
14604;DHT22;7388;51.078;13.740;2024-02-26T00:15:10;7.80;39.60
14604;DHT22;7388;51.078;13.740;2024-02-26T00:17:36;7.70;39.70
14604;DHT22;7388;51.078;13.740;2024-02-26T00:20:03;7.70;39.80
14604;DHT22;7388;51.078;13.740;2024-02-26T00:22:35;7.60;39.90
14604;DHT22;7388;51.078;13.740;2024-02-26T00:25:01;7.60;39.80
14604;DHT22;7388;51.078;13.740;2024-02-26T00:27:26;7.60;39.80
14604;DHT22;7388;51.078;13.740;2024-02-26T00:29:52;7.60;39.70
14604;DHT22;7388;51.078;13.740;2024-02-26T00:32:18;7.60;39.70
14604;DHT22;7388;51.078;13.740;2024-02-26T00:34:44;7.60;39.50
14604;DHT22;7388;51.078;13.740;2024-02-26T00:37:09;7.50;39.60
14604;DHT22;7388;51.078;13.740;2024-02-26T00:39:35;7.50;39.70
14604;DHT22;7388;51.078;13.740;2024-02-26T00:42:01;7.50;39.80
14604;DHT22;7388;51.078;13.740;2024-02-26T00:44:26;7.50;39.80
14604;DHT22;7388;51.078;13.740;2024-02-26T00:46:52;7.50;39.80
14604;DHT22;7388;51.078;13.740;2024-02-26T00:49:18;7.50;39.80
14604;DHT22;7388;51.078;13.740;2024-02-26T00:51:43;7.40;39.60
14604;DHT22;7388;51.078;13.740;2024-02-26T00:54:09;7.40;39.60
14604;DHT22;7388;51.078;13.740;2024-02-26T00:56:35;7.40;39.60
14604;DHT22;7388;51.078;13.740;2024-02-26T00:59:01;7.30;39.60
14604;DHT22;7388;51.078;13.740;2024-02-26T01:01:26;7.30;39.60
14604;DHT22;7388;51.078;13.740;2024-02-26T01:03:52;7.30;39.80
14604;DHT22;7388;51.078;13.740;2024-02-26T01:06:18;7.30;40.50
14604;DHT22;7388;51.078;13.740;2024-02-26T01:08:44;7.30;39.80
14604;DHT22;7388;51.078;13.740;2024-02-26T01:11:09;7.20;39.80
14604;DHT22;7388;51.078;13.740;2024-02-26T01:13:35;7.20;39.90
14604;DHT22;7388;51.078;13.740;2024-02-26T01:16:01;7.20;39.90
14604;DHT22;7388;51.078;13.740;2024-02-26T01:18:27;7.20;40.00
14604;DHT22;7388;51.078;13.740;2024-02-26T01:20:52;7.20;40.00
14604;DHT22;7388;51.078;13.740;2024-02-26T01:23:20;7.20;39.90
14604;DHT22;7388;51.078;13.740;2024-02-26T01:25:46;7.20;40.40
14604;DHT22;7388;51.078;13.740;2024-02-26T01:28:12;7.10;39.70
14604;DHT22;7388;51.078;13.740;2024-02-26T01:30:37;7.10;39.70
14604;DHT22;7388;51.078;13.740;2024-02-26T01:33:03;7.10;39.70
14604;DHT22;7388;51.078;13.740;2024-02-26T01:35:29;7.10;39.80
14604;DHT22;7388;51.078;13.740;2024-02-26T01:37:55;7.00;39.70
14604;DHT22;7388;51.078;13.740;2024-02-26T01:40:21;7.00;39.70
14604;DHT22;7388;51.078;13.740;2024-02-26T01:42:47;7.00;39.70
14604;DHT22;7388;51.078;13.740;2024-02-26T01:45:17;6.90;39.80
14604;DHT22;7388;51.078;13.740;2024-02-26T01:47:52;6.80;39.90
14604;DHT22;7388;51.078;13.740;2024-02-26T01:50:19;6.80;40.00
14604;DHT22;7388;51.078;13.740;2024-02-26T01:52:49;6.80;40.00
14604;DHT22;7388;51.078;13.740;2024-02-26T01:55:15;6.80;40.00
14604;DHT22;7388;51.078;13.740;2024-02-26T01:57:44;6.80;40.10
14604;DHT22;7388;51.078;13.740;2024-02-26T02:00:11;6.80;40.20
14604;DHT22;7388;51.078;13.740;2024-02-26T02:02:38;6.80;40.10
14604;DHT22;7388;51.078;13.740;2024-02-26T02:05:06;6.80;40.20
14604;DHT22;7388;51.078;13.740;2024-02-26T02:07:33;6.80;39.90
14604;DHT22;7388;51.078;13.740;2024-02-26T02:10:00;6.80;40.00
14604;DHT22;7388;51.078;13.740;2024-02-26T02:12:26;6.80;40.00
14604;DHT22;7388;51.078;13.740;2024-02-26T02:14:52;6.70;40.00
14604;DHT22;7388;51.078;13.740;2024-02-26T02:17:19;6.70;40.00
14604;DHT22;7388;51.078;13.740;2024-02-26T02:19:45;6.70;40.00
14604;DHT22;7388;51.078;13.740;2024-02-26T02:22:11;6.60;39.90
14604;DHT22;7388;51.078;13.740;2024-02-26T02:24:36;6.60;40.10
14604;DHT22;7388;51.078;13.740;2024-02-26T02:27:03;6.60;40.00
14604;DHT22;7388;51.078;13.740;2024-02-26T02:29:28;6.60;40.00
14604;DHT22;7388;51.078;13.740;2024-02-26T02:31:54;6.60;40.10
14604;DHT22;7388;51.078;13.740;2024-02-26T02:34:21;6.60;40.00
14604;DHT22;7388;51.078;13.740;2024-02-26T02:36:54;6.60;40.00
14604;DHT22;7388;51.078;13.740;2024-02-26T02:39:20;6.60;40.10
14604;DHT22;7388;51.078;13.740;2024-02-26T02:41:46;6.60;39.90
14604;DHT22;7388;51.078;13.740;2024-02-26T02:44:12;6.50;40.10
14604;DHT22;7388;51.078;13.740;2024-02-26T02:46:39;6.50;40.00
14604;DHT22;7388;51.078;13.740;2024-02-26T02:49:08;6.50;40.20
14604;DHT22;7388;51.078;13.740;2024-02-26T02:51:35;6.50;40.20
14604;DHT22;7388;51.078;13.740;2024-02-26T02:54:01;6.50;40.00
14604;DHT22;7388;51.078;13.740;2024-02-26T02:56:26;6.40;40.00
14604;DHT22;7388;51.078;13.740;2024-02-26T02:58:52;6.40;40.00
14604;DHT22;7388;51.078;13.740;2024-02-26T03:01:18;6.40;40.20
14604;DHT22;7388;51.078;13.740;2024-02-26T03:03:44;6.40;40.30
14604;DHT22;7388;51.078;13.740;2024-02-26T03:06:09;6.40;40.50
14604;DHT22;7388;51.078;13.740;2024-02-26T03:08:35;6.40;40.60
14604;DHT22;7388;51.078;13.740;2024-02-26T03:11:04;6.40;40.50
14604;DHT22;7388;51.078;13.740;2024-02-26T03:13:30;6.50;40.60
14604;DHT22;7388;51.078;13.740;2024-02-26T03:15:55;6.50;40.50
14604;DHT22;7388;51.078;13.740;2024-02-26T03:18:21;6.50;40.20
14604;DHT22;7388;51.078;13.740;2024-02-26T03:20:47;6.50;40.10
14604;DHT22;7388;51.078;13.740;2024-02-26T03:23:13;6.40;39.90
14604;DHT22;7388;51.078;13.740;2024-02-26T03:25:42;6.40;39.90
14604;DHT22;7388;51.078;13.740;2024-02-26T03:28:08;6.40;39.90
14604;DHT22;7388;51.078;13.740;2024-02-26T03:30:34;6.30;39.80
14604;DHT22;7388;51.078;13.740;2024-02-26T03:33:00;6.30;40.00
14604;DHT22;7388;51.078;13.740;2024-02-26T03:35:26;6.30;40.10
14604;DHT22;7388;51.078;13.740;2024-02-26T03:37:51;6.20;40.10
14604;DHT22;7388;51.078;13.740;2024-02-26T03:40:17;6.20;40.10
14604;DHT22;7388;51.078;13.740;2024-02-26T03:42:45;6.20;40.30
14604;DHT22;7388;51.078;13.740;2024-02-26T03:45:11;6.20;40.60
14604;DHT22;7388;51.078;13.740;2024-02-26T03:47:38;6.20;40.60
14604;DHT22;7388;51.078;13.740;2024-02-26T03:50:07;6.20;40.50
14604;DHT22;7388;51.078;13.740;2024-02-26T03:52:33;6.20;40.30
14604;DHT22;7388;51.078;13.740;2024-02-26T03:54:59;6.20;40.20
14604;DHT22;7388;51.078;13.740;2024-02-26T03:57:25;6.20;40.20
14604;DHT22;7388;51.078;13.740;2024-02-26T03:59:51;6.20;40.30
14604;DHT22;7388;51.078;13.740;2024-02-26T04:02:17;6.20;40.50
14604;DHT22;7388;51.078;13.740;2024-02-26T04:04:46;6.20;40.60
14604;DHT22;7388;51.078;13.740;2024-02-26T04:07:12;6.20;40.50
14604;DHT22;7388;51.078;13.740;2024-02-26T04:09:38;6.20;40.50
14604;DHT22;7388;51.078;13.740;2024-02-26T04:12:04;6.20;40.50
14604;DHT22;7388;51.078;13.740;2024-02-26T04:14:30;6.20;40.50
14604;DHT22;7388;51.078;13.740;2024-02-26T04:16:56;6.20;40.60
14604;DHT22;7388;51.078;13.740;2024-02-26T04:19:21;6.20;40.60
14604;DHT22;7388;51.078;13.740;2024-02-26T04:21:47;6.20;40.70
14604;DHT22;7388;51.078;13.740;2024-02-26T04:24:13;6.20;40.70
14604;DHT22;7388;51.078;13.740;2024-02-26T04:26:39;6.20;40.60
14604;DHT22;7388;51.078;13.740;2024-02-26T04:29:04;6.20;40.60
14604;DHT22;7388;51.078;13.740;2024-02-26T04:31:30;6.20;40.50
14604;DHT22;7388;51.078;13.740;2024-02-26T04:33:58;6.20;40.40
14604;DHT22;7388;51.078;13.740;2024-02-26T04:36:24;6.20;40.30
14604;DHT22;7388;51.078;13.740;2024-02-26T04:38:51;6.20;40.20
14604;DHT22;7388;51.078;13.740;2024-02-26T04:41:17;6.10;40.20
14604;DHT22;7388;51.078;13.740;2024-02-26T04:43:42;6.10;40.30
14604;DHT22;7388;51.078;13.740;2024-02-26T04:46:09;6.10;40.50
14604;DHT22;7388;51.078;13.740;2024-02-26T04:48:35;6.10;40.40
14604;DHT22;7388;51.078;13.740;2024-02-26T04:51:01;6.10;40.50
14604;DHT22;7388;51.078;13.740;2024-02-26T04:53:27;6.10;40.40
14604;DHT22;7388;51.078;13.740;2024-02-26T04:55:53;6.10;40.20
14604;DHT22;7388;51.078;13.740;2024-02-26T04:58:18;6.10;40.40
14604;DHT22;7388;51.078;13.740;2024-02-26T05:00:44;6.10;40.50
14604;DHT22;7388;51.078;13.740;2024-02-26T05:03:10;6.10;40.60
14604;DHT22;7388;51.078;13.740;2024-02-26T05:05:40;6.10;40.90
14604;DHT22;7388;51.078;13.740;2024-02-26T05:08:06;6.10;41.00
14604;DHT22;7388;51.078;13.740;2024-02-26T05:10:33;6.10;41.20
14604;DHT22;7388;51.078;13.740;2024-02-26T05:12:59;6.10;41.50
14604;DHT22;7388;51.078;13.740;2024-02-26T05:15:25;6.10;41.40
14604;DHT22;7388;51.078;13.740;2024-02-26T05:17:50;6.10;41.30
14604;DHT22;7388;51.078;13.740;2024-02-26T05:20:16;6.10;41.20
14604;DHT22;7388;51.078;13.740;2024-02-26T05:22:42;6.10;41.00
14604;DHT22;7388;51.078;13.740;2024-02-26T05:25:08;6.10;40.90
14604;DHT22;7388;51.078;13.740;2024-02-26T05:27:34;6.10;40.70
14604;DHT22;7388;51.078;13.740;2024-02-26T05:29:59;6.00;41.10
14604;DHT22;7388;51.078;13.740;2024-02-26T05:32:25;6.00;40.50
14604;DHT22;7388;51.078;13.740;2024-02-26T05:34:51;6.00;40.70
14604;DHT22;7388;51.078;13.740;2024-02-26T05:37:16;5.90;41.20
14604;DHT22;7388;51.078;13.740;2024-02-26T05:39:42;5.90;41.20
14604;DHT22;7388;51.078;13.740;2024-02-26T05:42:08;5.90;41.10
14604;DHT22;7388;51.078;13.740;2024-02-26T05:44:34;5.90;41.00
14604;DHT22;7388;51.078;13.740;2024-02-26T05:47:00;5.90;41.00
14604;DHT22;7388;51.078;13.740;2024-02-26T05:49:25;6.00;41.00
14604;DHT22;7388;51.078;13.740;2024-02-26T05:51:51;6.00;40.90
14604;DHT22;7388;51.078;13.740;2024-02-26T05:54:17;6.00;40.60
14604;DHT22;7388;51.078;13.740;2024-02-26T05:56:43;5.90;40.50
14604;DHT22;7388;51.078;13.740;2024-02-26T05:59:08;5.90;40.80
14604;DHT22;7388;51.078;13.740;2024-02-26T06:01:34;5.90;41.00
14604;DHT22;7388;51.078;13.740;2024-02-26T06:04:00;5.90;41.20
14604;DHT22;7388;51.078;13.740;2024-02-26T06:06:25;5.80;40.90
14604;DHT22;7388;51.078;13.740;2024-02-26T06:08:51;5.80;41.00
14604;DHT22;7388;51.078;13.740;2024-02-26T06:11:18;5.80;40.80
14604;DHT22;7388;51.078;13.740;2024-02-26T06:13:43;5.80;40.90
14604;DHT22;7388;51.078;13.740;2024-02-26T06:16:09;5.80;41.00
14604;DHT22;7388;51.078;13.740;2024-02-26T06:18:35;5.80;40.90
14604;DHT22;7388;51.078;13.740;2024-02-26T06:21:01;5.80;41.20
14604;DHT22;7388;51.078;13.740;2024-02-26T06:23:26;5.70;41.90
14604;DHT22;7388;51.078;13.740;2024-02-26T06:25:52;5.70;41.90
14604;DHT22;7388;51.078;13.740;2024-02-26T06:28:18;5.80;41.80
14604;DHT22;7388;51.078;13.740;2024-02-26T06:30:44;5.80;41.80
14604;DHT22;7388;51.078;13.740;2024-02-26T06:33:11;5.90;41.90
14604;DHT22;7388;51.078;13.740;2024-02-26T06:35:38;5.90;42.30
14604;DHT22;7388;51.078;13.740;2024-02-26T06:38:04;6.00;42.60
14604;DHT22;7388;51.078;13.740;2024-02-26T06:40:30;6.10;42.70
14604;DHT22;7388;51.078;13.740;2024-02-26T06:42:55;6.20;42.70
14604;DHT22;7388;51.078;13.740;2024-02-26T06:45:21;6.30;42.60
14604;DHT22;7388;51.078;13.740;2024-02-26T06:47:47;6.40;42.40
14604;DHT22;7388;51.078;13.740;2024-02-26T06:50:13;6.50;42.40
14604;DHT22;7388;51.078;13.740;2024-02-26T06:52:39;6.70;42.50
14604;DHT22;7388;51.078;13.740;2024-02-26T06:55:05;7.00;42.20
14604;DHT22;7388;51.078;13.740;2024-02-26T06:57:33;7.20;42.70
14604;DHT22;7388;51.078;13.740;2024-02-26T06:59:59;7.40;41.90
14604;DHT22;7388;51.078;13.740;2024-02-26T07:02:25;7.70;41.90
14604;DHT22;7388;51.078;13.740;2024-02-26T07:04:51;7.90;41.80
14604;DHT22;7388;51.078;13.740;2024-02-26T07:07:17;8.00;41.60
14604;DHT22;7388;51.078;13.740;2024-02-26T07:09:44;8.10;41.60
14604;DHT22;7388;51.078;13.740;2024-02-26T07:12:10;8.20;41.80
14604;DHT22;7388;51.078;13.740;2024-02-26T07:14:35;8.40;41.80
14604;DHT22;7388;51.078;13.740;2024-02-26T07:17:03;8.50;42.00
14604;DHT22;7388;51.078;13.740;2024-02-26T07:19:29;8.60;42.00
14604;DHT22;7388;51.078;13.740;2024-02-26T07:21:54;8.80;41.90
14604;DHT22;7388;51.078;13.740;2024-02-26T07:24:21;9.00;41.90
14604;DHT22;7388;51.078;13.740;2024-02-26T07:26:47;9.10;41.90
14604;DHT22;7388;51.078;13.740;2024-02-26T07:29:12;9.30;41.90
14604;DHT22;7388;51.078;13.740;2024-02-26T07:31:38;9.40;41.80
14604;DHT22;7388;51.078;13.740;2024-02-26T07:34:04;9.50;41.90
14604;DHT22;7388;51.078;13.740;2024-02-26T07:36:30;9.70;41.90
14604;DHT22;7388;51.078;13.740;2024-02-26T07:38:55;9.80;41.70
14604;DHT22;7388;51.078;13.740;2024-02-26T07:41:21;9.90;41.60
14604;DHT22;7388;51.078;13.740;2024-02-26T07:43:47;10.00;41.50
14604;DHT22;7388;51.078;13.740;2024-02-26T07:46:14;10.10;41.50
14604;DHT22;7388;51.078;13.740;2024-02-26T07:48:39;10.10;41.30
14604;DHT22;7388;51.078;13.740;2024-02-26T07:51:06;10.30;41.50
14604;DHT22;7388;51.078;13.740;2024-02-26T07:53:32;10.40;42.00
14604;DHT22;7388;51.078;13.740;2024-02-26T07:55:58;10.70;41.50
14604;DHT22;7388;51.078;13.740;2024-02-26T07:58:24;10.90;41.40
14604;DHT22;7388;51.078;13.740;2024-02-26T08:00:50;11.20;41.00
14604;DHT22;7388;51.078;13.740;2024-02-26T08:03:16;11.50;40.80
14604;DHT22;7388;51.078;13.740;2024-02-26T08:05:42;11.80;40.40
14604;DHT22;7388;51.078;13.740;2024-02-26T08:08:09;12.00;40.10
14604;DHT22;7388;51.078;13.740;2024-02-26T08:10:34;12.30;39.90
14604;DHT22;7388;51.078;13.740;2024-02-26T08:13:00;12.60;39.80
14604;DHT22;7388;51.078;13.740;2024-02-26T08:15:35;12.90;39.60
14604;DHT22;7388;51.078;13.740;2024-02-26T08:18:04;13.20;39.20
14604;DHT22;7388;51.078;13.740;2024-02-26T08:20:30;13.50;39.40
14604;DHT22;7388;51.078;13.740;2024-02-26T08:22:57;13.70;38.10
14604;DHT22;7388;51.078;13.740;2024-02-26T08:25:23;13.70;37.40
14604;DHT22;7388;51.078;13.740;2024-02-26T08:27:49;13.80;37.80
14604;DHT22;7388;51.078;13.740;2024-02-26T08:30:15;13.80;37.60
14604;DHT22;7388;51.078;13.740;2024-02-26T08:32:47;13.90;37.70
14604;DHT22;7388;51.078;13.740;2024-02-26T08:35:13;14.00;37.80
14604;DHT22;7388;51.078;13.740;2024-02-26T08:37:38;13.90;37.60
14604;DHT22;7388;51.078;13.740;2024-02-26T08:40:07;13.90;37.60
14604;DHT22;7388;51.078;13.740;2024-02-26T08:42:33;13.90;37.60
14604;DHT22;7388;51.078;13.740;2024-02-26T08:45:00;13.90;38.00
14604;DHT22;7388;51.078;13.740;2024-02-26T08:47:26;14.10;38.10
14604;DHT22;7388;51.078;13.740;2024-02-26T08:49:53;14.30;38.40
14604;DHT22;7388;51.078;13.740;2024-02-26T08:52:19;14.40;38.10
14604;DHT22;7388;51.078;13.740;2024-02-26T08:54:45;14.50;37.10
14604;DHT22;7388;51.078;13.740;2024-02-26T08:57:11;14.40;37.00
14604;DHT22;7388;51.078;13.740;2024-02-26T08:59:37;14.30;37.10
14604;DHT22;7388;51.078;13.740;2024-02-26T09:02:03;14.40;37.30
14604;DHT22;7388;51.078;13.740;2024-02-26T09:04:28;14.50;37.10
14604;DHT22;7388;51.078;13.740;2024-02-26T09:06:54;14.60;37.10
14604;DHT22;7388;51.078;13.740;2024-02-26T09:09:20;14.60;36.80
14604;DHT22;7388;51.078;13.740;2024-02-26T09:11:48;14.80;37.00
14604;DHT22;7388;51.078;13.740;2024-02-26T09:14:17;15.00;36.70
14604;DHT22;7388;51.078;13.740;2024-02-26T09:16:42;15.10;36.90
14604;DHT22;7388;51.078;13.740;2024-02-26T09:19:08;15.30;36.10
14604;DHT22;7388;51.078;13.740;2024-02-26T09:21:34;15.40;36.20
14604;DHT22;7388;51.078;13.740;2024-02-26T09:24:00;15.50;35.80
14604;DHT22;7388;51.078;13.740;2024-02-26T09:26:25;15.50;35.00
14604;DHT22;7388;51.078;13.740;2024-02-26T09:28:51;15.40;35.50
14604;DHT22;7388;51.078;13.740;2024-02-26T09:31:20;15.20;35.80
14604;DHT22;7388;51.078;13.740;2024-02-26T09:33:46;15.00;35.50
14604;DHT22;7388;51.078;13.740;2024-02-26T09:36:12;14.90;35.70
14604;DHT22;7388;51.078;13.740;2024-02-26T09:38:37;14.80;36.60
14604;DHT22;7388;51.078;13.740;2024-02-26T09:41:05;14.90;36.80
14604;DHT22;7388;51.078;13.740;2024-02-26T09:43:38;14.90;36.60
14604;DHT22;7388;51.078;13.740;2024-02-26T09:46:08;14.90;36.50
14604;DHT22;7388;51.078;13.740;2024-02-26T09:48:35;14.90;36.50
14604;DHT22;7388;51.078;13.740;2024-02-26T09:51:02;15.00;36.50
14604;DHT22;7388;51.078;13.740;2024-02-26T09:53:30;15.20;36.30
14604;DHT22;7388;51.078;13.740;2024-02-26T09:55:59;15.30;36.30
14604;DHT22;7388;51.078;13.740;2024-02-26T09:58:27;15.40;35.80
14604;DHT22;7388;51.078;13.740;2024-02-26T10:00:56;15.50;35.50
14604;DHT22;7388;51.078;13.740;2024-02-26T10:03:34;15.70;35.50
14604;DHT22;7388;51.078;13.740;2024-02-26T10:06:03;15.80;35.50
14604;DHT22;7388;51.078;13.740;2024-02-26T10:08:31;15.90;35.50
14604;DHT22;7388;51.078;13.740;2024-02-26T10:10:58;16.10;35.40
14604;DHT22;7388;51.078;13.740;2024-02-26T10:13:23;16.20;34.90
14604;DHT22;7388;51.078;13.740;2024-02-26T10:15:49;16.30;34.50
14604;DHT22;7388;51.078;13.740;2024-02-26T10:18:15;16.40;34.90
14604;DHT22;7388;51.078;13.740;2024-02-26T10:20:41;16.50;34.00
14604;DHT22;7388;51.078;13.740;2024-02-26T10:23:07;16.50;34.10
14604;DHT22;7388;51.078;13.740;2024-02-26T10:25:32;16.40;33.60
14604;DHT22;7388;51.078;13.740;2024-02-26T10:28:01;16.40;34.50
14604;DHT22;7388;51.078;13.740;2024-02-26T10:30:28;16.60;34.40
14604;DHT22;7388;51.078;13.740;2024-02-26T10:32:55;16.80;34.50
14604;DHT22;7388;51.078;13.740;2024-02-26T10:35:21;16.90;33.30
14604;DHT22;7388;51.078;13.740;2024-02-26T10:37:47;17.00;33.10
14604;DHT22;7388;51.078;13.740;2024-02-26T10:40:14;17.10;33.20
14604;DHT22;7388;51.078;13.740;2024-02-26T10:42:41;17.30;32.30
14604;DHT22;7388;51.078;13.740;2024-02-26T10:45:09;17.40;32.60
14604;DHT22;7388;51.078;13.740;2024-02-26T10:47:35;17.50;32.30
14604;DHT22;7388;51.078;13.740;2024-02-26T10:50:05;17.50;32.20
14604;DHT22;7388;51.078;13.740;2024-02-26T10:52:33;17.70;32.00
14604;DHT22;7388;51.078;13.740;2024-02-26T10:55:01;17.90;32.70
14604;DHT22;7388;51.078;13.740;2024-02-26T10:57:36;18.10;31.90
14604;DHT22;7388;51.078;13.740;2024-02-26T11:00:05;18.30;31.00
14604;DHT22;7388;51.078;13.740;2024-02-26T11:02:33;18.40;30.40
14604;DHT22;7388;51.078;13.740;2024-02-26T11:05:03;18.40;30.80
14604;DHT22;7388;51.078;13.740;2024-02-26T11:07:30;18.30;30.10
14604;DHT22;7388;51.078;13.740;2024-02-26T11:09:59;18.20;30.90
14604;DHT22;7388;51.078;13.740;2024-02-26T11:12:28;18.10;30.40
14604;DHT22;7388;51.078;13.740;2024-02-26T11:14:55;18.10;30.40
14604;DHT22;7388;51.078;13.740;2024-02-26T11:17:27;17.90;30.60
14604;DHT22;7388;51.078;13.740;2024-02-26T11:19:57;18.00;30.80
14604;DHT22;7388;51.078;13.740;2024-02-26T11:22:27;17.90;30.40
14604;DHT22;7388;51.078;13.740;2024-02-26T11:24:55;17.80;30.50
14604;DHT22;7388;51.078;13.740;2024-02-26T11:27:30;17.60;30.50
14604;DHT22;7388;51.078;13.740;2024-02-26T11:29:58;17.30;30.40
14604;DHT22;7388;51.078;13.740;2024-02-26T11:32:27;17.10;31.30
14604;DHT22;7388;51.078;13.740;2024-02-26T11:34:54;16.90;31.40
14604;DHT22;7388;51.078;13.740;2024-02-26T11:37:20;16.90;31.90
14604;DHT22;7388;51.078;13.740;2024-02-26T11:39:46;17.00;31.60
14604;DHT22;7388;51.078;13.740;2024-02-26T11:42:15;17.10;31.50
14604;DHT22;7388;51.078;13.740;2024-02-26T11:44:42;17.30;31.90
14604;DHT22;7388;51.078;13.740;2024-02-26T11:47:12;17.50;31.30
14604;DHT22;7388;51.078;13.740;2024-02-26T11:49:38;17.80;31.00
14604;DHT22;7388;51.078;13.740;2024-02-26T11:52:08;17.80;30.50
14604;DHT22;7388;51.078;13.740;2024-02-26T11:54:56;18.00;30.10
14604;DHT22;7388;51.078;13.740;2024-02-26T11:57:28;18.00;30.10
14604;DHT22;7388;51.078;13.740;2024-02-26T12:00:13;17.90;30.00
14604;DHT22;7388;51.078;13.740;2024-02-26T12:02:51;18.00;30.70
14604;DHT22;7388;51.078;13.740;2024-02-26T12:05:24;17.80;31.00
14604;DHT22;7388;51.078;13.740;2024-02-26T12:08:04;17.80;31.10
14604;DHT22;7388;51.078;13.740;2024-02-26T12:10:33;17.80;30.40
14604;DHT22;7388;51.078;13.740;2024-02-26T12:13:08;17.60;30.50
14604;DHT22;7388;51.078;13.740;2024-02-26T12:15:45;17.40;30.40
14604;DHT22;7388;51.078;13.740;2024-02-26T12:18:17;17.20;30.90
14604;DHT22;7388;51.078;13.740;2024-02-26T12:20:44;17.00;30.80
14604;DHT22;7388;51.078;13.740;2024-02-26T12:23:15;16.70;31.50
14604;DHT22;7388;51.078;13.740;2024-02-26T12:25:43;16.70;32.30
14604;DHT22;7388;51.078;13.740;2024-02-26T12:28:10;16.60;32.00
14604;DHT22;7388;51.078;13.740;2024-02-26T12:30:35;16.50;32.40
14604;DHT22;7388;51.078;13.740;2024-02-26T12:33:01;16.50;32.50
14604;DHT22;7388;51.078;13.740;2024-02-26T12:35:28;16.40;32.50
14604;DHT22;7388;51.078;13.740;2024-02-26T12:37:57;16.40;32.60
14604;DHT22;7388;51.078;13.740;2024-02-26T12:40:23;16.40;31.90
14604;DHT22;7388;51.078;13.740;2024-02-26T12:42:49;16.20;32.70
14604;DHT22;7388;51.078;13.740;2024-02-26T12:45:16;16.10;32.80
14604;DHT22;7388;51.078;13.740;2024-02-26T12:47:45;16.20;32.90
14604;DHT22;7388;51.078;13.740;2024-02-26T12:50:12;16.20;32.50
14604;DHT22;7388;51.078;13.740;2024-02-26T12:52:46;16.10;32.50
14604;DHT22;7388;51.078;13.740;2024-02-26T12:55:18;16.10;32.80
14604;DHT22;7388;51.078;13.740;2024-02-26T12:57:45;16.00;32.80
14604;DHT22;7388;51.078;13.740;2024-02-26T13:00:16;16.00;33.00
14604;DHT22;7388;51.078;13.740;2024-02-26T13:02:44;16.00;33.40
14604;DHT22;7388;51.078;13.740;2024-02-26T13:05:12;16.00;33.00
14604;DHT22;7388;51.078;13.740;2024-02-26T13:07:46;16.00;33.10
14604;DHT22;7388;51.078;13.740;2024-02-26T13:10:15;15.90;33.10
14604;DHT22;7388;51.078;13.740;2024-02-26T13:12:46;15.90;33.10
14604;DHT22;7388;51.078;13.740;2024-02-26T13:15:17;15.80;33.20
14604;DHT22;7388;51.078;13.740;2024-02-26T13:17:44;15.90;33.60
14604;DHT22;7388;51.078;13.740;2024-02-26T13:20:10;15.80;33.20
14604;DHT22;7388;51.078;13.740;2024-02-26T13:22:37;15.90;33.10
14604;DHT22;7388;51.078;13.740;2024-02-26T13:25:02;15.80;33.00
14604;DHT22;7388;51.078;13.740;2024-02-26T13:27:29;15.90;33.40
14604;DHT22;7388;51.078;13.740;2024-02-26T13:30:11;15.80;33.10
14604;DHT22;7388;51.078;13.740;2024-02-26T13:32:41;15.80;33.10
14604;DHT22;7388;51.078;13.740;2024-02-26T13:35:13;15.80;33.40
14604;DHT22;7388;51.078;13.740;2024-02-26T13:37:40;15.80;33.70
14604;DHT22;7388;51.078;13.740;2024-02-26T13:40:10;15.80;33.50
14604;DHT22;7388;51.078;13.740;2024-02-26T13:42:37;15.80;33.50
14604;DHT22;7388;51.078;13.740;2024-02-26T13:45:04;15.80;33.50
14604;DHT22;7388;51.078;13.740;2024-02-26T13:47:33;15.80;33.30
14604;DHT22;7388;51.078;13.740;2024-02-26T13:49:59;15.70;33.10
14604;DHT22;7388;51.078;13.740;2024-02-26T13:52:26;15.70;33.10
14604;DHT22;7388;51.078;13.740;2024-02-26T13:54:52;15.70;33.40
14604;DHT22;7388;51.078;13.740;2024-02-26T13:57:19;15.70;33.40
14604;DHT22;7388;51.078;13.740;2024-02-26T13:59:45;15.70;33.30
14604;DHT22;7388;51.078;13.740;2024-02-26T14:02:11;15.70;33.30
14604;DHT22;7388;51.078;13.740;2024-02-26T14:04:37;15.70;33.50
14604;DHT22;7388;51.078;13.740;2024-02-26T14:07:04;15.70;33.80
14604;DHT22;7388;51.078;13.740;2024-02-26T14:09:30;15.70;33.60
14604;DHT22;7388;51.078;13.740;2024-02-26T14:12:00;15.70;33.70
14604;DHT22;7388;51.078;13.740;2024-02-26T14:14:27;15.60;33.40
14604;DHT22;7388;51.078;13.740;2024-02-26T14:16:53;15.60;33.60
14604;DHT22;7388;51.078;13.740;2024-02-26T14:19:19;15.50;33.60
14604;DHT22;7388;51.078;13.740;2024-02-26T14:21:45;15.60;33.70
14604;DHT22;7388;51.078;13.740;2024-02-26T14:24:10;15.70;33.80
14604;DHT22;7388;51.078;13.740;2024-02-26T14:26:36;15.70;33.60
14604;DHT22;7388;51.078;13.740;2024-02-26T14:29:02;15.70;33.70
14604;DHT22;7388;51.078;13.740;2024-02-26T14:31:29;15.70;33.60
14604;DHT22;7388;51.078;13.740;2024-02-26T14:33:54;15.70;33.70
14604;DHT22;7388;51.078;13.740;2024-02-26T14:36:21;15.80;34.00
14604;DHT22;7388;51.078;13.740;2024-02-26T14:38:48;15.80;33.70
14604;DHT22;7388;51.078;13.740;2024-02-26T14:41:14;15.90;33.60
14604;DHT22;7388;51.078;13.740;2024-02-26T14:43:39;15.90;33.80
14604;DHT22;7388;51.078;13.740;2024-02-26T14:46:05;15.90;33.50
14604;DHT22;7388;51.078;13.740;2024-02-26T14:48:31;15.90;33.40
14604;DHT22;7388;51.078;13.740;2024-02-26T14:50:57;15.80;33.30
14604;DHT22;7388;51.078;13.740;2024-02-26T14:53:24;15.80;33.30
14604;DHT22;7388;51.078;13.740;2024-02-26T14:55:50;15.80;33.60
14604;DHT22;7388;51.078;13.740;2024-02-26T14:58:16;15.80;33.30
14604;DHT22;7388;51.078;13.740;2024-02-26T15:00:42;15.70;33.50
14604;DHT22;7388;51.078;13.740;2024-02-26T15:03:08;15.60;33.30
14604;DHT22;7388;51.078;13.740;2024-02-26T15:05:34;15.50;33.50
14604;DHT22;7388;51.078;13.740;2024-02-26T15:08:00;15.50;33.80
14604;DHT22;7388;51.078;13.740;2024-02-26T15:10:26;15.50;33.80
14604;DHT22;7388;51.078;13.740;2024-02-26T15:12:52;15.40;33.70
14604;DHT22;7388;51.078;13.740;2024-02-26T15:15:21;15.40;33.90
14604;DHT22;7388;51.078;13.740;2024-02-26T15:17:48;15.40;33.90
14604;DHT22;7388;51.078;13.740;2024-02-26T15:20:17;15.40;33.90
14604;DHT22;7388;51.078;13.740;2024-02-26T15:22:43;15.50;34.10
14604;DHT22;7388;51.078;13.740;2024-02-26T15:25:09;15.50;34.00
14604;DHT22;7388;51.078;13.740;2024-02-26T15:27:35;15.50;33.80
14604;DHT22;7388;51.078;13.740;2024-02-26T15:30:01;15.50;33.90
14604;DHT22;7388;51.078;13.740;2024-02-26T15:32:27;15.50;33.90
14604;DHT22;7388;51.078;13.740;2024-02-26T15:34:56;15.50;33.90